createdAt,value
2022-10-19T00:00:06.301Z,1024.78
2022-10-19T00:01:06.152Z,1024.83
2022-10-19T00:02:07.280Z,1024.80
2022-10-19T00:03:06.957Z,1024.78
2022-10-19T00:04:08.650Z,1024.80
2022-10-19T00:05:06.177Z,1024.79
2022-10-19T00:06:06.096Z,1024.77
2022-10-19T00:07:05.904Z,1024.71
2022-10-19T00:08:05.965Z,1024.67
2022-10-19T00:09:06.114Z,1024.69
2022-10-19T00:10:06.176Z,1024.67
2022-10-19T00:11:06.218Z,1024.73
2022-10-19T00:12:05.817Z,1024.69
2022-10-19T00:13:06.457Z,1024.66
2022-10-19T00:14:05.825Z,1024.67
2022-10-19T00:15:06.017Z,1024.56
2022-10-19T00:16:10.617Z,1024.58
2022-10-19T00:17:06.636Z,1024.50
2022-10-19T00:18:06.258Z,1024.62
2022-10-19T00:19:05.976Z,1024.64
2022-10-19T00:20:09.054Z,1024.64
2022-10-19T00:21:06.193Z,1024.64
2022-10-19T00:22:08.113Z,1024.67
2022-10-19T00:23:05.820Z,1024.68
2022-10-19T00:24:07.302Z,1024.64
2022-10-19T00:25:06.527Z,1024.61
2022-10-19T00:26:07.228Z,1024.64
2022-10-19T00:27:06.234Z,1024.73
2022-10-19T00:28:06.328Z,1024.68
2022-10-19T00:29:06.275Z,1024.67
2022-10-19T00:30:05.598Z,1024.67
2022-10-19T00:31:05.628Z,1024.69
2022-10-19T00:32:05.611Z,1024.79
2022-10-19T00:33:05.830Z,1024.70
2022-10-19T00:34:05.871Z,1024.73
2022-10-19T00:35:05.642Z,1024.74
2022-10-19T00:36:07.252Z,1024.74
2022-10-19T00:37:05.825Z,1024.79
2022-10-19T00:38:05.781Z,1024.80
2022-10-19T00:39:05.676Z,1024.95
2022-10-19T00:40:05.422Z,1024.94
2022-10-19T00:41:05.462Z,1024.95
2022-10-19T00:42:05.510Z,1024.89
2022-10-19T00:43:05.437Z,1024.93
2022-10-19T00:44:05.502Z,1025.00
2022-10-19T00:45:05.491Z,1025.01
2022-10-19T00:46:05.455Z,1024.94
2022-10-19T00:47:05.454Z,1025.02
2022-10-19T00:48:06.011Z,1025.02
2022-10-19T00:49:08.356Z,1024.99
2022-10-19T00:50:06.503Z,1024.98
2022-10-19T00:51:05.634Z,1024.99
2022-10-19T00:52:06.758Z,1024.86
2022-10-19T00:53:05.485Z,1024.91
2022-10-19T00:54:05.527Z,1024.95
2022-10-19T00:55:05.422Z,1024.92
2022-10-19T00:56:05.456Z,1024.92
2022-10-19T00:57:05.239Z,1024.92
2022-10-19T00:58:05.721Z,1025.04
2022-10-19T00:59:06.566Z,1024.97
2022-10-19T01:00:06.350Z,1024.98
2022-10-19T01:01:09.404Z,1025.03
2022-10-19T01:02:07.199Z,1024.99
2022-10-19T01:03:05.819Z,1024.99
2022-10-19T01:04:05.575Z,1025.02
2022-10-19T01:05:05.628Z,1025.08
2022-10-19T01:06:06.898Z,1025.10
2022-10-19T01:07:05.523Z,1025.10
2022-10-19T01:08:07.003Z,1025.04
2022-10-19T01:09:05.472Z,1025.05
2022-10-19T01:10:08.029Z,1025.00
2022-10-19T01:11:06.128Z,1024.99
2022-10-19T01:12:06.011Z,1025.03
2022-10-19T01:13:05.781Z,1025.09
2022-10-19T01:14:06.952Z,1025.02
2022-10-19T01:15:10.869Z,1025.00
2022-10-19T01:16:05.472Z,1025.10
2022-10-19T01:17:05.599Z,1025.03
2022-10-19T01:18:49.901Z,1025.05
2022-10-19T01:19:05.553Z,1025.02
2022-10-19T01:20:06.549Z,1024.98
2022-10-19T01:21:06.293Z,1025.08
2022-10-19T01:22:05.705Z,1025.07
2022-10-19T01:23:06.832Z,1025.01
2022-10-19T01:24:09.060Z,1024.95
2022-10-19T01:25:05.805Z,1024.98
2022-10-19T01:26:05.746Z,1024.88
2022-10-19T01:27:06.771Z,1024.95
2022-10-19T01:28:05.357Z,1025.07
2022-10-19T01:29:06.870Z,1025.07
2022-10-19T01:30:07.676Z,1025.11
2022-10-19T01:31:07.617Z,1025.10
2022-10-19T01:32:08.388Z,1025.13
2022-10-19T01:33:05.979Z,1025.05
2022-10-19T01:34:05.648Z,1025.02
2022-10-19T01:35:05.688Z,1025.07
2022-10-19T01:36:11.302Z,1025.09
2022-10-19T01:37:06.813Z,1025.06
2022-10-19T01:38:08.006Z,1025.13
2022-10-19T01:39:09.423Z,1025.15
2022-10-19T01:40:08.488Z,1025.04
2022-10-19T01:41:08.701Z,1025.06
2022-10-19T01:42:05.240Z,1025.03
2022-10-19T01:43:08.192Z,1025.05
2022-10-19T01:44:11.670Z,1025.01
2022-10-19T01:45:06.643Z,1024.97
2022-10-19T01:46:05.284Z,1024.98
2022-10-19T01:47:05.134Z,1025.01
2022-10-19T01:48:05.599Z,1024.88
2022-10-19T01:49:05.475Z,1024.99
2022-10-19T01:50:05.924Z,1024.94
2022-10-19T01:51:05.371Z,1024.99
2022-10-19T01:52:06.610Z,1025.03
2022-10-19T01:53:05.050Z,1024.99
2022-10-19T01:54:04.838Z,1025.05
2022-10-19T01:55:07.129Z,1025.08
2022-10-19T01:56:05.253Z,1025.02
2022-10-19T01:57:05.092Z,1025.00
2022-10-19T01:58:08.291Z,1025.03
2022-10-19T01:59:04.491Z,1025.01
2022-10-19T02:00:04.726Z,1025.03
2022-10-19T02:01:05.376Z,1024.98
2022-10-19T02:02:07.718Z,1025.00
2022-10-19T02:03:06.189Z,1025.00
2022-10-19T02:04:04.834Z,1024.97
2022-10-19T02:05:04.764Z,1024.98
2022-10-19T02:06:04.942Z,1024.99
2022-10-19T02:07:06.509Z,1024.96
2022-10-19T02:08:04.381Z,1024.98
2022-10-19T02:09:08.016Z,1024.95
2022-10-19T02:10:06.062Z,1025.03
2022-10-19T02:11:04.283Z,1025.09
2022-10-19T02:12:04.236Z,1025.09
2022-10-19T02:13:05.069Z,1025.09
2022-10-19T02:14:04.148Z,1025.09
2022-10-19T02:15:04.206Z,1025.05
2022-10-19T02:16:04.262Z,1025.01
2022-10-19T02:17:04.371Z,1025.01
2022-10-19T02:18:04.622Z,1025.00
2022-10-19T02:19:04.211Z,1025.02
2022-10-19T02:20:04.404Z,1024.93
2022-10-19T02:21:04.118Z,1024.97
2022-10-19T02:22:04.239Z,1024.96
2022-10-19T02:23:05.125Z,1024.92
2022-10-19T02:24:04.901Z,1024.95
2022-10-19T02:25:05.692Z,1024.96
2022-10-19T02:26:04.511Z,1024.89
2022-10-19T02:27:05.052Z,1024.97
2022-10-19T02:28:07.214Z,1024.93
2022-10-19T02:29:06.515Z,1024.93
2022-10-19T02:30:08.361Z,1025.01
2022-10-19T02:31:04.513Z,1024.96
2022-10-19T02:32:05.917Z,1025.00
2022-10-19T02:33:07.113Z,1024.95
2022-10-19T02:34:05.654Z,1025.01
2022-10-19T02:35:05.076Z,1024.94
2022-10-19T02:36:06.853Z,1024.94
2022-10-19T02:37:04.965Z,1024.94
2022-10-19T02:38:04.206Z,1024.91
2022-10-19T02:39:04.184Z,1024.91
2022-10-19T02:40:06.026Z,1025.05
2022-10-19T02:41:05.384Z,1025.01
2022-10-19T02:42:04.893Z,1024.96
2022-10-19T02:43:03.909Z,1024.95
2022-10-19T02:44:05.616Z,1024.97
2022-10-19T02:45:07.452Z,1025.07
2022-10-19T02:46:05.255Z,1024.99
2022-10-19T02:47:07.750Z,1025.18
2022-10-19T02:48:04.000Z,1025.16
2022-10-19T02:49:06.168Z,1025.25
2022-10-19T02:50:08.438Z,1025.18
2022-10-19T02:51:04.308Z,1025.23
2022-10-19T02:52:05.855Z,1025.21
2022-10-19T02:53:04.788Z,1025.22
2022-10-19T02:54:05.614Z,1025.22
2022-10-19T02:55:05.579Z,1025.25
2022-10-19T02:56:03.756Z,1025.19
2022-10-19T02:57:04.143Z,1025.26
2022-10-19T02:58:03.951Z,1025.23
2022-10-19T02:59:05.333Z,1025.16
2022-10-19T03:00:06.970Z,1025.18
2022-10-19T03:01:03.726Z,1025.18
2022-10-19T03:02:04.109Z,1025.26
2022-10-19T03:03:04.320Z,1025.27
2022-10-19T03:04:04.641Z,1025.29
2022-10-19T03:05:03.949Z,1025.27
2022-10-19T03:06:03.911Z,1025.26
2022-10-19T03:07:03.810Z,1025.26
2022-10-19T03:08:03.746Z,1025.27
2022-10-19T03:09:04.097Z,1025.28
2022-10-19T03:10:03.672Z,1025.25
2022-10-19T03:11:04.553Z,1025.20
2022-10-19T03:12:05.604Z,1025.22
2022-10-19T03:13:09.653Z,1025.27
2022-10-19T03:14:04.716Z,1025.24
2022-10-19T03:15:03.270Z,1025.25
2022-10-19T03:16:04.841Z,1025.26
2022-10-19T03:17:03.622Z,1025.23
2022-10-19T03:18:03.455Z,1025.26
2022-10-19T03:19:04.195Z,1025.31
2022-10-19T03:20:04.563Z,1025.27
2022-10-19T03:21:03.535Z,1025.32
2022-10-19T03:22:04.443Z,1025.33
2022-10-19T03:23:04.153Z,1025.36
2022-10-19T03:24:03.380Z,1025.36
2022-10-19T03:25:03.277Z,1025.44
2022-10-19T03:26:03.532Z,1025.43
2022-10-19T03:27:03.671Z,1025.42
2022-10-19T03:28:03.360Z,1025.45
2022-10-19T03:29:03.424Z,1025.47
2022-10-19T03:30:03.402Z,1025.42
2022-10-19T03:31:04.022Z,1025.45
2022-10-19T03:32:03.567Z,1025.43
2022-10-19T03:33:03.277Z,1025.49
2022-10-19T03:34:03.527Z,1025.53
2022-10-19T03:35:03.234Z,1025.52
2022-10-19T03:36:03.284Z,1025.49
2022-10-19T03:37:04.478Z,1025.55
2022-10-19T03:38:03.192Z,1025.54
2022-10-19T03:39:03.787Z,1025.62
2022-10-19T03:40:03.320Z,1025.61
2022-10-19T03:41:03.109Z,1025.59
2022-10-19T03:42:03.778Z,1025.56
2022-10-19T03:43:02.958Z,1025.59
2022-10-19T03:44:03.120Z,1025.64
2022-10-19T03:45:04.279Z,1025.61
2022-10-19T03:46:06.586Z,1025.61
2022-10-19T03:47:03.183Z,1025.64
2022-10-19T03:48:05.042Z,1025.66
2022-10-19T03:49:02.951Z,1025.65
2022-10-19T03:50:02.945Z,1025.63
2022-10-19T03:51:02.851Z,1025.67
2022-10-19T03:52:03.026Z,1025.67
2022-10-19T03:54:02.901Z,1025.70
2022-10-19T03:55:03.160Z,1025.69
2022-10-19T03:56:02.804Z,1025.71
2022-10-19T03:57:03.973Z,1025.74
2022-10-19T03:58:02.905Z,1025.71
2022-10-19T03:59:02.765Z,1025.76
2022-10-19T04:00:02.736Z,1025.79
2022-10-19T04:01:02.870Z,1025.79
2022-10-19T04:02:03.008Z,1025.84
2022-10-19T04:03:02.974Z,1025.89
2022-10-19T04:04:02.769Z,1025.85
2022-10-19T04:05:02.741Z,1025.92
2022-10-19T04:06:03.194Z,1025.90
2022-10-19T04:07:02.814Z,1025.91
2022-10-19T04:08:04.456Z,1025.95
2022-10-19T04:09:02.949Z,1025.87
2022-10-19T04:10:02.785Z,1025.87
2022-10-19T04:11:03.808Z,1025.84
2022-10-19T04:12:02.982Z,1025.86
2022-10-19T04:13:03.070Z,1025.88
2022-10-19T04:14:04.027Z,1025.88
2022-10-19T04:15:02.472Z,1025.90
2022-10-19T04:16:02.982Z,1025.92
2022-10-19T04:17:05.029Z,1025.95
2022-10-19T04:18:07.084Z,1026.02
2022-10-19T04:19:04.590Z,1025.98
2022-10-19T04:20:09.710Z,1026.06
2022-10-19T04:21:03.397Z,1026.02
2022-10-19T04:22:02.958Z,1026.03
2022-10-19T04:23:03.119Z,1026.01
2022-10-19T04:24:03.729Z,1026.04
2022-10-19T04:25:03.112Z,1026.06
2022-10-19T04:26:03.232Z,1026.03
2022-10-19T04:27:03.229Z,1026.08
2022-10-19T04:28:03.803Z,1026.07
2022-10-19T04:29:02.926Z,1026.06
2022-10-19T04:30:02.591Z,1026.08
2022-10-19T04:31:02.783Z,1026.06
2022-10-19T04:32:02.352Z,1026.00
2022-10-19T04:33:02.263Z,1026.03
2022-10-19T04:34:02.544Z,1026.04
2022-10-19T04:35:03.091Z,1026.05
2022-10-19T04:36:05.910Z,1026.06
2022-10-19T04:37:02.129Z,1026.01
2022-10-19T04:38:02.241Z,1026.10
2022-10-19T04:39:04.557Z,1026.09
2022-10-19T04:40:02.353Z,1026.06
2022-10-19T04:41:04.263Z,1026.10
2022-10-19T04:42:04.200Z,1026.11
2022-10-19T04:43:03.825Z,1026.11
2022-10-19T04:44:05.255Z,1026.12
2022-10-19T04:45:02.535Z,1026.14
2022-10-19T04:46:02.643Z,1026.13
2022-10-19T04:47:02.735Z,1026.17
2022-10-19T04:48:02.330Z,1026.19
2022-10-19T04:49:02.294Z,1026.17
2022-10-19T04:50:02.349Z,1026.17
2022-10-19T04:51:04.807Z,1026.19
2022-10-19T04:52:02.342Z,1026.16
2022-10-19T04:53:03.437Z,1026.24
2022-10-19T04:54:03.142Z,1026.20
2022-10-19T04:55:03.034Z,1026.23
2022-10-19T04:56:02.340Z,1026.21
2022-10-19T04:57:02.397Z,1026.21
2022-10-19T04:58:03.663Z,1026.16
2022-10-19T04:59:04.399Z,1026.17
2022-10-19T05:00:02.447Z,1026.13
2022-10-19T05:01:03.004Z,1026.14
2022-10-19T05:02:02.880Z,1026.13
2022-10-19T05:03:03.429Z,1026.16
2022-10-19T05:04:14.303Z,1026.17
2022-10-19T05:05:03.237Z,1026.10
2022-10-19T05:06:02.630Z,1026.14
2022-10-19T05:07:02.689Z,1026.12
2022-10-19T05:08:02.721Z,1026.11
2022-10-19T05:09:02.668Z,1026.13
2022-10-19T05:10:02.543Z,1026.13
2022-10-19T05:11:04.464Z,1026.15
2022-10-19T05:12:03.510Z,1026.21
2022-10-19T05:13:02.091Z,1026.18
2022-10-19T05:14:02.667Z,1026.24
2022-10-19T05:15:02.421Z,1026.18
2022-10-19T05:16:02.751Z,1026.09
2022-10-19T05:17:03.810Z,1026.09
2022-10-19T05:18:02.703Z,1026.09
2022-10-19T05:19:02.093Z,1026.14
2022-10-19T05:20:02.149Z,1026.16
2022-10-19T05:21:02.783Z,1026.13
2022-10-19T05:22:02.163Z,1026.14
2022-10-19T05:23:07.687Z,1026.10
2022-10-19T05:24:03.565Z,1026.09
2022-10-19T05:25:02.053Z,1026.07
2022-10-19T05:26:02.922Z,1026.12
2022-10-19T05:27:01.639Z,1026.07
2022-10-19T05:28:03.643Z,1026.12
2022-10-19T05:29:02.340Z,1026.11
2022-10-19T05:30:03.064Z,1026.06
2022-10-19T05:31:03.875Z,1026.10
2022-10-19T05:32:01.935Z,1026.10
2022-10-19T05:33:02.919Z,1026.09
2022-10-19T05:34:02.338Z,1026.13
2022-10-19T05:35:01.557Z,1026.07
2022-10-19T05:36:01.839Z,1026.08
2022-10-19T05:37:01.908Z,1026.04
2022-10-19T05:38:03.807Z,1026.05
2022-10-19T05:39:01.388Z,1026.07
2022-10-19T05:40:01.502Z,1026.09
2022-10-19T05:41:03.099Z,1026.11
2022-10-19T05:42:02.387Z,1026.06
2022-10-19T05:43:01.804Z,1026.01
2022-10-19T05:44:03.792Z,1026.00
2022-10-19T05:45:01.722Z,1025.94
2022-10-19T05:46:02.008Z,1026.02
2022-10-19T05:47:01.533Z,1025.97
2022-10-19T05:48:02.950Z,1025.96
2022-10-19T05:49:01.216Z,1025.94
2022-10-19T05:50:01.706Z,1025.91
2022-10-19T05:51:01.123Z,1025.97
2022-10-19T05:52:02.410Z,1026.01
2022-10-19T05:53:01.173Z,1025.99
2022-10-19T05:54:01.129Z,1026.03
2022-10-19T05:55:01.916Z,1025.98
2022-10-19T05:56:01.042Z,1025.96
2022-10-19T05:57:01.039Z,1026.03
2022-10-19T05:58:01.129Z,1025.99
2022-10-19T05:59:01.965Z,1026.00
2022-10-19T06:00:01.039Z,1026.03
2022-10-19T06:01:01.035Z,1026.07
2022-10-19T06:02:01.162Z,1026.10
2022-10-19T06:03:01.190Z,1026.12
2022-10-19T06:04:01.180Z,1026.06
2022-10-19T06:05:01.115Z,1026.03
2022-10-19T06:06:01.194Z,1026.04
2022-10-19T06:07:01.190Z,1026.07
2022-10-19T06:08:01.117Z,1026.03
2022-10-19T06:09:00.914Z,1026.10
2022-10-19T06:10:01.144Z,1026.08
2022-10-19T06:11:01.125Z,1026.16
2022-10-19T06:12:01.095Z,1026.15
2022-10-19T06:13:01.149Z,1026.11
2022-10-19T06:14:00.839Z,1026.14
2022-10-19T06:15:00.889Z,1026.19
2022-10-19T06:16:00.958Z,1026.19
2022-10-19T06:17:00.769Z,1026.17
2022-10-19T06:18:00.991Z,1026.17
2022-10-19T06:19:01.075Z,1026.15
2022-10-19T06:20:00.718Z,1026.12
2022-10-19T06:21:00.723Z,1026.14
2022-10-19T06:22:01.303Z,1026.19
2022-10-19T06:23:00.729Z,1026.16
2022-10-19T06:24:00.797Z,1026.15
2022-10-19T06:25:00.696Z,1026.11
2022-10-19T06:26:00.684Z,1026.16
2022-10-19T06:27:00.788Z,1026.15
2022-10-19T06:28:00.679Z,1026.16
2022-10-19T06:29:00.879Z,1026.12
2022-10-19T06:30:00.605Z,1026.18
2022-10-19T06:31:00.692Z,1026.19
2022-10-19T06:32:00.608Z,1026.20
2022-10-19T06:33:00.635Z,1026.20
2022-10-19T06:34:00.633Z,1026.20
2022-10-19T06:35:00.504Z,1026.20
2022-10-19T06:36:00.502Z,1026.26
2022-10-19T06:37:00.572Z,1026.17
2022-10-19T06:38:00.969Z,1026.22
2022-10-19T06:39:00.546Z,1026.16
2022-10-19T06:40:03.587Z,1026.16
2022-10-19T06:41:01.889Z,1026.19
2022-10-19T06:42:00.483Z,1026.19
2022-10-19T06:43:00.404Z,1026.22
2022-10-19T06:44:00.583Z,1026.20
2022-10-19T06:45:00.423Z,1026.23
2022-10-19T06:46:00.405Z,1026.20
2022-10-19T06:47:00.343Z,1026.19
2022-10-19T06:48:03.530Z,1026.23
2022-10-19T06:49:02.347Z,1026.16
2022-10-19T06:50:00.289Z,1026.18
2022-10-19T06:51:00.336Z,1026.21
2022-10-19T06:52:00.300Z,1026.24
2022-10-19T06:53:00.268Z,1026.21
2022-10-19T06:54:00.290Z,1026.21
2022-10-19T06:55:00.286Z,1026.18
2022-10-19T06:56:00.248Z,1026.12
2022-10-19T06:57:00.338Z,1026.13
2022-10-19T06:58:00.218Z,1026.18
2022-10-19T06:59:00.207Z,1026.17
2022-10-19T07:00:00.159Z,1026.18
2022-10-19T07:01:00.411Z,1026.18
2022-10-19T07:02:00.173Z,1026.22
2022-10-19T07:03:00.189Z,1026.23
2022-10-19T07:04:00.105Z,1026.20
2022-10-19T07:05:04.472Z,1026.15
2022-10-19T07:06:01.168Z,1026.16
2022-10-19T07:07:00.086Z,1026.12
2022-10-19T07:08:00.099Z,1026.12
2022-10-19T07:09:00.029Z,1026.12
2022-10-19T07:10:00.020Z,1026.10
2022-10-19T07:11:00.053Z,1026.20
2022-10-19T07:12:00.023Z,1026.17
2022-10-19T07:13:00.043Z,1026.16
2022-10-19T07:14:00.003Z,1026.17
2022-10-19T07:15:00.011Z,1026.21
2022-10-19T07:16:00.067Z,1026.26
2022-10-19T07:16:59.961Z,1026.29
2022-10-19T07:17:59.924Z,1026.17
2022-10-19T07:18:59.923Z,1026.22
2022-10-19T07:19:59.887Z,1026.19
2022-10-19T07:20:59.963Z,1026.21
2022-10-19T07:21:59.855Z,1026.30
2022-10-19T07:22:59.969Z,1026.37
2022-10-19T07:23:59.822Z,1026.30
2022-10-19T07:24:59.813Z,1026.30
2022-10-19T07:25:59.905Z,1026.31
2022-10-19T07:26:59.881Z,1026.37
2022-10-19T07:28:00.055Z,1026.41
2022-10-19T07:28:59.845Z,1026.44
2022-10-19T07:29:59.794Z,1026.42
2022-10-19T07:30:59.724Z,1026.40
2022-10-19T07:31:59.803Z,1026.51
2022-10-19T07:32:59.715Z,1026.52
2022-10-19T07:33:59.772Z,1026.54
2022-10-19T07:34:59.698Z,1026.52
2022-10-19T07:35:59.657Z,1026.59
2022-10-19T07:36:59.658Z,1026.56
2022-10-19T07:37:59.626Z,1026.59
2022-10-19T07:38:59.661Z,1026.61
2022-10-19T07:39:59.672Z,1026.59
2022-10-19T07:40:59.735Z,1026.62
2022-10-19T07:41:59.598Z,1026.62
2022-10-19T07:42:59.578Z,1026.67
2022-10-19T07:43:59.928Z,1026.70
2022-10-19T07:44:59.565Z,1026.64
2022-10-19T07:45:59.981Z,1026.71
2022-10-19T07:46:59.944Z,1026.73
2022-10-19T07:47:59.501Z,1026.70
2022-10-19T07:48:59.522Z,1026.68
2022-10-19T07:49:59.548Z,1026.70
2022-10-19T07:50:59.515Z,1026.70
2022-10-19T07:51:59.439Z,1026.71
2022-10-19T07:52:59.451Z,1026.71
2022-10-19T07:53:59.431Z,1026.72
2022-10-19T07:54:59.528Z,1026.77
2022-10-19T07:56:03.320Z,1026.80
2022-10-19T07:57:00.384Z,1026.80
2022-10-19T07:57:59.393Z,1026.78
2022-10-19T07:58:59.443Z,1026.82
2022-10-19T07:59:59.339Z,1026.79
2022-10-19T08:00:59.415Z,1026.76
2022-10-19T08:01:59.434Z,1026.80
2022-10-19T08:03:31.642Z,1026.83
2022-10-19T08:05:03.236Z,1026.86
2022-10-19T08:06:00.282Z,1026.81
2022-10-19T08:06:59.223Z,1026.80
2022-10-19T08:07:59.245Z,1026.79
2022-10-19T08:08:59.370Z,1026.80
2022-10-19T08:09:59.173Z,1026.89
2022-10-19T08:10:59.187Z,1026.81
2022-10-19T08:11:59.357Z,1026.79
2022-10-19T08:12:59.171Z,1026.81
2022-10-19T08:13:59.166Z,1026.79
2022-10-19T08:15:00.115Z,1026.79
2022-10-19T08:15:59.111Z,1026.78
2022-10-19T08:16:59.135Z,1026.81
2022-10-19T08:17:59.094Z,1026.85
2022-10-19T08:18:59.648Z,1026.81
2022-10-19T08:19:59.071Z,1026.85
2022-10-19T08:20:59.776Z,1026.80
2022-10-19T08:21:59.015Z,1026.81
2022-10-19T08:22:59.259Z,1026.80
2022-10-19T08:23:58.996Z,1026.79
2022-10-19T08:24:58.987Z,1026.79
2022-10-19T08:26:00.420Z,1026.78
2022-10-19T08:26:59.004Z,1026.77
2022-10-19T08:27:59.949Z,1026.83
2022-10-19T08:28:58.948Z,1026.80
2022-10-19T08:29:58.928Z,1026.86
2022-10-19T08:30:58.955Z,1026.90
2022-10-19T08:31:58.880Z,1026.87
2022-10-19T08:33:04.092Z,1026.85
2022-10-19T08:33:58.880Z,1026.89
2022-10-19T08:34:58.890Z,1026.89
2022-10-19T08:35:58.841Z,1026.89
2022-10-19T08:36:58.822Z,1026.90
2022-10-19T08:37:58.931Z,1026.90
2022-10-19T08:38:58.803Z,1026.94
2022-10-19T08:39:59.460Z,1026.96
2022-10-19T08:40:58.882Z,1026.95
2022-10-19T08:41:58.757Z,1026.98
2022-10-19T08:42:59.537Z,1026.97
2022-10-19T08:43:58.821Z,1027.00
2022-10-19T08:44:58.760Z,1027.02
2022-10-19T08:45:58.721Z,1026.96
2022-10-19T08:47:00.514Z,1026.97
2022-10-19T08:47:58.954Z,1027.05
2022-10-19T08:48:58.812Z,1027.02
2022-10-19T08:49:58.706Z,1027.06
2022-10-19T08:50:59.612Z,1027.07
2022-10-19T08:51:58.714Z,1027.01
2022-10-19T08:52:58.698Z,1027.13
2022-10-19T08:53:58.573Z,1027.15
2022-10-19T08:54:58.646Z,1027.12
2022-10-19T08:56:00.863Z,1027.16
2022-10-19T08:57:01.024Z,1027.13
2022-10-19T08:57:58.545Z,1027.21
2022-10-19T08:58:58.569Z,1027.20
2022-10-19T08:59:58.512Z,1027.10
2022-10-19T09:00:58.515Z,1027.15
2022-10-19T09:01:58.516Z,1027.13
2022-10-19T09:02:59.085Z,1027.18
2022-10-19T09:03:58.884Z,1027.24
2022-10-19T09:04:58.419Z,1027.17
2022-10-19T09:05:58.688Z,1027.19
2022-10-19T09:06:58.461Z,1027.17
2022-10-19T09:07:58.388Z,1027.20
2022-10-19T09:08:59.499Z,1027.22
2022-10-19T09:09:58.368Z,1027.22
2022-10-19T09:10:58.340Z,1027.18
2022-10-19T09:11:59.308Z,1027.19
2022-10-19T09:12:58.717Z,1027.23
2022-10-19T09:14:05.055Z,1027.19
2022-10-19T09:14:59.302Z,1027.17
2022-10-19T09:15:58.264Z,1027.17
2022-10-19T09:16:59.119Z,1027.17
2022-10-19T09:17:58.285Z,1027.21
2022-10-19T09:18:59.190Z,1027.24
2022-10-19T09:19:58.231Z,1027.24
2022-10-19T09:20:59.250Z,1027.21
2022-10-19T09:21:59.166Z,1027.25
2022-10-19T09:22:58.276Z,1027.25
2022-10-19T09:23:58.247Z,1027.30
2022-10-19T09:24:58.173Z,1027.22
2022-10-19T09:25:58.263Z,1027.27
2022-10-19T09:26:58.296Z,1027.26
2022-10-19T09:27:58.198Z,1027.23
2022-10-19T09:28:58.694Z,1027.23
2022-10-19T09:29:58.135Z,1027.29
2022-10-19T09:30:58.113Z,1027.28
2022-10-19T09:32:58.115Z,1027.31
2022-10-19T09:33:58.116Z,1027.25
2022-10-19T09:34:59.110Z,1027.27
2022-10-19T09:35:58.118Z,1027.27
2022-10-19T09:36:58.131Z,1027.24
2022-10-19T09:37:58.036Z,1027.26
2022-10-19T09:38:58.037Z,1027.29
2022-10-19T09:39:58.090Z,1027.22
2022-10-19T09:40:57.928Z,1027.24
2022-10-19T09:41:57.918Z,1027.27
2022-10-19T09:42:57.973Z,1027.23
2022-10-19T09:43:57.911Z,1027.27
2022-10-19T09:44:58.137Z,1027.26
2022-10-19T09:45:57.845Z,1027.28
2022-10-19T09:46:57.860Z,1027.28
2022-10-19T09:48:04.566Z,1027.27
2022-10-19T09:48:58.830Z,1027.27
2022-10-19T09:49:59.286Z,1027.26
2022-10-19T09:50:57.812Z,1027.29
2022-10-19T09:51:57.820Z,1027.28
2022-10-19T09:52:58.973Z,1027.32
2022-10-19T09:53:58.024Z,1027.30
2022-10-19T09:54:58.141Z,1027.31
2022-10-19T09:55:57.841Z,1027.28
2022-10-19T09:56:57.772Z,1027.33
2022-10-19T09:57:57.965Z,1027.28
2022-10-19T09:58:58.132Z,1027.30
2022-10-19T09:59:57.996Z,1027.29
2022-10-19T10:00:58.033Z,1027.37
2022-10-19T10:01:57.716Z,1027.31
2022-10-19T10:02:58.067Z,1027.27
2022-10-19T10:03:59.909Z,1027.27
2022-10-19T10:05:06.842Z,1027.30
2022-10-19T10:05:59.870Z,1027.31
2022-10-19T10:07:31.985Z,1027.33
2022-10-19T10:07:58.449Z,1027.34
2022-10-19T10:08:59.860Z,1027.33
2022-10-19T10:09:58.011Z,1027.29
2022-10-19T10:10:57.859Z,1027.26
2022-10-19T10:11:57.619Z,1027.22
2022-10-19T10:12:57.560Z,1027.30
2022-10-19T10:13:57.631Z,1027.30
2022-10-19T10:14:57.597Z,1027.28
2022-10-19T10:15:57.673Z,1027.26
2022-10-19T10:16:58.368Z,1027.27
2022-10-19T10:17:57.459Z,1027.32
2022-10-19T10:18:58.459Z,1027.27
2022-10-19T10:20:00.426Z,1027.32
2022-10-19T10:21:57.472Z,1027.32
2022-10-19T10:22:58.552Z,1027.37
2022-10-19T10:23:57.391Z,1027.32
2022-10-19T10:24:57.621Z,1027.37
2022-10-19T10:25:58.229Z,1027.35
2022-10-19T10:26:58.833Z,1027.41
2022-10-19T10:27:58.025Z,1027.41
2022-10-19T10:29:00.660Z,1027.43
2022-10-19T10:29:57.502Z,1027.42
2022-10-19T10:30:57.424Z,1027.39
2022-10-19T10:31:57.453Z,1027.37
2022-10-19T10:33:04.711Z,1027.38
2022-10-19T10:34:06.521Z,1027.41
2022-10-19T10:35:01.221Z,1027.41
2022-10-19T10:35:57.427Z,1027.43
2022-10-19T10:36:57.387Z,1027.44
2022-10-19T10:37:57.498Z,1027.45
2022-10-19T10:40:08.796Z,1027.42
2022-10-19T10:40:58.054Z,1027.44
2022-10-19T10:41:58.880Z,1027.48
2022-10-19T10:42:57.377Z,1027.49
2022-10-19T10:43:59.568Z,1027.49
2022-10-19T10:44:58.500Z,1027.47
2022-10-19T10:45:57.227Z,1027.48
2022-10-19T10:46:57.111Z,1027.52
2022-10-19T10:47:57.161Z,1027.49
2022-10-19T10:48:57.167Z,1027.51
2022-10-19T10:49:57.371Z,1027.51
2022-10-19T10:50:56.930Z,1027.56
2022-10-19T10:51:56.932Z,1027.54
2022-10-19T10:52:57.039Z,1027.46
2022-10-19T10:53:56.900Z,1027.50
2022-10-19T10:54:57.162Z,1027.47
2022-10-19T10:56:01.623Z,1027.47
2022-10-19T10:56:57.510Z,1027.51
2022-10-19T10:57:57.183Z,1027.52
2022-10-19T10:58:57.272Z,1027.42
2022-10-19T10:59:56.911Z,1027.42
2022-10-19T11:01:01.922Z,1027.41
2022-10-19T11:01:57.102Z,1027.43
2022-10-19T11:02:56.848Z,1027.43
2022-10-19T11:03:56.834Z,1027.45
2022-10-19T11:04:57.024Z,1027.41
2022-10-19T11:05:56.767Z,1027.41
2022-10-19T11:06:57.135Z,1027.39
2022-10-19T11:07:56.889Z,1027.40
2022-10-19T11:08:56.882Z,1027.45
2022-10-19T11:09:57.162Z,1027.43
2022-10-19T11:10:57.264Z,1027.44
2022-10-19T11:11:57.189Z,1027.39
2022-10-19T11:12:56.727Z,1027.37
2022-10-19T11:13:56.660Z,1027.31
2022-10-19T11:14:56.708Z,1027.36
2022-10-19T11:15:56.900Z,1027.36
2022-10-19T11:16:56.762Z,1027.39
2022-10-19T11:17:56.847Z,1027.40
2022-10-19T11:18:56.618Z,1027.37
2022-10-19T11:19:57.123Z,1027.34
2022-10-19T11:20:56.927Z,1027.38
2022-10-19T11:21:57.524Z,1027.41
2022-10-19T11:22:56.552Z,1027.37
2022-10-19T11:23:56.751Z,1027.33
2022-10-19T11:24:56.954Z,1027.28
2022-10-19T11:25:57.217Z,1027.28
2022-10-19T11:26:56.898Z,1027.26
2022-10-19T11:27:56.921Z,1027.26
2022-10-19T11:28:56.810Z,1027.24
2022-10-19T11:29:56.709Z,1027.17
2022-10-19T11:30:56.701Z,1027.20
2022-10-19T11:31:56.603Z,1027.16
2022-10-19T11:32:56.663Z,1027.13
2022-10-19T11:33:57.163Z,1027.13
2022-10-19T11:34:56.353Z,1027.11
2022-10-19T11:35:56.407Z,1027.12
2022-10-19T11:36:56.439Z,1027.09
2022-10-19T11:38:18.312Z,1027.12
2022-10-19T11:38:57.499Z,1027.07
2022-10-19T11:39:56.436Z,1027.02
2022-10-19T11:41:16.814Z,1027.15
2022-10-19T11:41:57.295Z,1027.14
2022-10-19T11:42:56.426Z,1027.03
2022-10-19T11:43:56.287Z,1027.00
2022-10-19T11:44:57.341Z,1027.00
2022-10-19T11:45:56.253Z,1026.96
2022-10-19T11:46:56.254Z,1027.04
2022-10-19T11:47:56.273Z,1027.05
2022-10-19T11:48:56.359Z,1027.02
2022-10-19T11:49:56.265Z,1027.05
2022-10-19T11:50:58.926Z,1027.07
2022-10-19T11:51:57.429Z,1026.94
2022-10-19T11:52:56.172Z,1027.01
2022-10-19T11:53:56.170Z,1026.96
2022-10-19T11:54:56.902Z,1026.95
2022-10-19T11:55:56.272Z,1026.91
2022-10-19T11:57:03.996Z,1026.93
2022-10-19T11:57:57.164Z,1026.83
2022-10-19T11:58:56.254Z,1026.87
2022-10-19T12:00:03.744Z,1026.89
2022-10-19T12:00:57.168Z,1026.87
2022-10-19T12:01:56.278Z,1026.82
2022-10-19T12:02:58.504Z,1026.81
2022-10-19T12:03:56.246Z,1026.82
2022-10-19T12:04:56.325Z,1026.79
2022-10-19T12:05:55.914Z,1026.68
2022-10-19T12:06:56.022Z,1026.76
2022-10-19T12:07:55.970Z,1026.78
2022-10-19T12:08:56.378Z,1026.71
2022-10-19T12:09:55.936Z,1026.66